sensor_id;sensor_type;location;lat;lon;timestamp;P1;durP1;ratioP1;P2;durP2;ratioP2
23714;SDS011;12036;50.858;4.472;2022-10-31T00:01:32;10.65;;;7.70;;
23714;SDS011;12036;50.858;4.472;2022-10-31T00:04:00;11.25;;;7.28;;
23714;SDS011;12036;50.858;4.472;2022-10-31T00:06:26;10.38;;;6.88;;
23714;SDS011;12036;50.858;4.472;2022-10-31T00:08:52;9.15;;;6.47;;
23714;SDS011;12036;50.858;4.472;2022-10-31T00:11:23;15.02;;;6.47;;
23714;SDS011;12036;50.858;4.472;2022-10-31T00:13:49;14.15;;;7.93;;
23714;SDS011;12036;50.858;4.472;2022-10-31T00:16:16;12.82;;;6.90;;
23714;SDS011;12036;50.858;4.472;2022-10-31T00:18:43;10.48;;;7.22;;
23714;SDS011;12036;50.858;4.472;2022-10-31T00:21:12;13.95;;;7.47;;
23714;SDS011;12036;50.858;4.472;2022-10-31T00:23:39;14.43;;;8.20;;
23714;SDS011;12036;50.858;4.472;2022-10-31T00:26:05;12.85;;;7.50;;
23714;SDS011;12036;50.858;4.472;2022-10-31T00:28:31;17.63;;;7.20;;
23714;SDS011;12036;50.858;4.472;2022-10-31T00:30:58;15.43;;;7.63;;
23714;SDS011;12036;50.858;4.472;2022-10-31T00:33:25;15.18;;;8.30;;
23714;SDS011;12036;50.858;4.472;2022-10-31T00:35:50;17.85;;;7.78;;
23714;SDS011;12036;50.858;4.472;2022-10-31T00:38:16;12.80;;;7.43;;
23714;SDS011;12036;50.858;4.472;2022-10-31T00:40:42;15.50;;;7.32;;
23714;SDS011;12036;50.858;4.472;2022-10-31T00:43:07;17.65;;;8.38;;
23714;SDS011;12036;50.858;4.472;2022-10-31T00:45:33;14.43;;;7.40;;
23714;SDS011;12036;50.858;4.472;2022-10-31T00:47:58;14.63;;;7.90;;
23714;SDS011;12036;50.858;4.472;2022-10-31T00:50:24;13.18;;;7.30;;
23714;SDS011;12036;50.858;4.472;2022-10-31T00:52:50;15.98;;;7.72;;
23714;SDS011;12036;50.858;4.472;2022-10-31T00:55:15;12.00;;;7.30;;
23714;SDS011;12036;50.858;4.472;2022-10-31T00:57:41;9.80;;;7.43;;
23714;SDS011;12036;50.858;4.472;2022-10-31T01:00:07;9.55;;;6.22;;
23714;SDS011;12036;50.858;4.472;2022-10-31T01:02:33;16.48;;;7.28;;
23714;SDS011;12036;50.858;4.472;2022-10-31T01:04:59;14.20;;;7.65;;
23714;SDS011;12036;50.858;4.472;2022-10-31T01:07:24;12.25;;;7.40;;
23714;SDS011;12036;50.858;4.472;2022-10-31T01:09:50;12.20;;;6.82;;
23714;SDS011;12036;50.858;4.472;2022-10-31T01:12:16;15.90;;;7.20;;
23714;SDS011;12036;50.858;4.472;2022-10-31T01:14:44;14.52;;;7.65;;
23714;SDS011;12036;50.858;4.472;2022-10-31T01:17:11;14.93;;;7.65;;
23714;SDS011;12036;50.858;4.472;2022-10-31T01:19:37;11.55;;;7.22;;
23714;SDS011;12036;50.858;4.472;2022-10-31T01:22:03;16.50;;;6.82;;
23714;SDS011;12036;50.858;4.472;2022-10-31T01:24:28;8.93;;;7.03;;
23714;SDS011;12036;50.858;4.472;2022-10-31T01:26:54;11.77;;;7.07;;
23714;SDS011;12036;50.858;4.472;2022-10-31T01:29:20;14.98;;;6.82;;
23714;SDS011;12036;50.858;4.472;2022-10-31T01:31:45;12.77;;;7.03;;
23714;SDS011;12036;50.858;4.472;2022-10-31T01:34:15;10.95;;;7.45;;
23714;SDS011;12036;50.858;4.472;2022-10-31T01:36:42;14.27;;;7.28;;
23714;SDS011;12036;50.858;4.472;2022-10-31T01:39:10;12.35;;;7.85;;
23714;SDS011;12036;50.858;4.472;2022-10-31T01:41:39;12.73;;;7.85;;
23714;SDS011;12036;50.858;4.472;2022-10-31T01:46:46;10.27;;;7.03;;
23714;SDS011;12036;50.858;4.472;2022-10-31T01:52:43;13.90;;;6.95;;
23714;SDS011;12036;50.858;4.472;2022-10-31T01:55:16;14.10;;;7.07;;
23714;SDS011;12036;50.858;4.472;2022-10-31T01:57:50;14.65;;;7.15;;
23714;SDS011;12036;50.858;4.472;2022-10-31T02:00:19;14.68;;;7.10;;
23714;SDS011;12036;50.858;4.472;2022-10-31T02:02:46;10.93;;;6.10;;
23714;SDS011;12036;50.858;4.472;2022-10-31T02:05:14;10.70;;;7.60;;
23714;SDS011;12036;50.858;4.472;2022-10-31T02:07:45;17.52;;;8.40;;
23714;SDS011;12036;50.858;4.472;2022-10-31T02:10:19;13.02;;;7.80;;
23714;SDS011;12036;50.858;4.472;2022-10-31T02:12:47;10.18;;;7.05;;
23714;SDS011;12036;50.858;4.472;2022-10-31T02:15:18;14.07;;;7.15;;
23714;SDS011;12036;50.858;4.472;2022-10-31T02:17:44;11.65;;;6.68;;
23714;SDS011;12036;50.858;4.472;2022-10-31T02:20:16;10.23;;;6.68;;
23714;SDS011;12036;50.858;4.472;2022-10-31T02:25:59;11.73;;;7.05;;
23714;SDS011;12036;50.858;4.472;2022-10-31T02:28:45;12.65;;;6.60;;
23714;SDS011;12036;50.858;4.472;2022-10-31T02:37:10;10.23;;;6.75;;
23714;SDS011;12036;50.858;4.472;2022-10-31T02:47:42;12.00;;;6.82;;
23714;SDS011;12036;50.858;4.472;2022-10-31T02:50:17;10.63;;;7.07;;
23714;SDS011;12036;50.858;4.472;2022-10-31T02:52:50;13.27;;;6.45;;
23714;SDS011;12036;50.858;4.472;2022-10-31T02:57:52;10.80;;;6.55;;
23714;SDS011;12036;50.858;4.472;2022-10-31T03:00:20;11.40;;;7.00;;
23714;SDS011;12036;50.858;4.472;2022-10-31T03:05:59;13.43;;;6.65;;
23714;SDS011;12036;50.858;4.472;2022-10-31T03:08:35;14.07;;;6.45;;
23714;SDS011;12036;50.858;4.472;2022-10-31T03:11:07;11.48;;;6.65;;
23714;SDS011;12036;50.858;4.472;2022-10-31T03:13:51;13.20;;;7.88;;
23714;SDS011;12036;50.858;4.472;2022-10-31T03:16:32;11.75;;;6.88;;
23714;SDS011;12036;50.858;4.472;2022-10-31T03:19:17;9.82;;;7.00;;
23714;SDS011;12036;50.858;4.472;2022-10-31T03:21:55;14.00;;;7.30;;
23714;SDS011;12036;50.858;4.472;2022-10-31T03:24:30;11.20;;;6.70;;
23714;SDS011;12036;50.858;4.472;2022-10-31T03:27:02;11.85;;;7.28;;
23714;SDS011;12036;50.858;4.472;2022-10-31T03:29:32;9.77;;;6.50;;
23714;SDS011;12036;50.858;4.472;2022-10-31T03:32:06;11.70;;;6.63;;
23714;SDS011;12036;50.858;4.472;2022-10-31T03:34:38;9.75;;;6.97;;
23714;SDS011;12036;50.858;4.472;2022-10-31T03:39:35;9.80;;;6.43;;
23714;SDS011;12036;50.858;4.472;2022-10-31T03:42:15;11.25;;;6.88;;
23714;SDS011;12036;50.858;4.472;2022-10-31T03:44:46;12.85;;;6.60;;
23714;SDS011;12036;50.858;4.472;2022-10-31T03:47:26;11.30;;;6.77;;
23714;SDS011;12036;50.858;4.472;2022-10-31T03:49:52;14.90;;;6.80;;
23714;SDS011;12036;50.858;4.472;2022-10-31T03:52:22;16.50;;;7.22;;
23714;SDS011;12036;50.858;4.472;2022-10-31T03:54:54;10.15;;;6.80;;
23714;SDS011;12036;50.858;4.472;2022-10-31T04:00:03;11.88;;;6.25;;
23714;SDS011;12036;50.858;4.472;2022-10-31T04:02:33;9.75;;;6.47;;
23714;SDS011;12036;50.858;4.472;2022-10-31T04:05:03;19.00;;;6.68;;
23714;SDS011;12036;50.858;4.472;2022-10-31T04:07:30;9.85;;;6.93;;
23714;SDS011;12036;50.858;4.472;2022-10-31T04:10:00;12.13;;;7.47;;
23714;SDS011;12036;50.858;4.472;2022-10-31T04:12:28;11.32;;;6.97;;
23714;SDS011;12036;50.858;4.472;2022-10-31T04:14:56;14.90;;;6.68;;
23714;SDS011;12036;50.858;4.472;2022-10-31T04:17:23;9.45;;;6.75;;
23714;SDS011;12036;50.858;4.472;2022-10-31T04:19:54;12.57;;;6.40;;
23714;SDS011;12036;50.858;4.472;2022-10-31T04:22:19;12.90;;;7.07;;
23714;SDS011;12036;50.858;4.472;2022-10-31T04:24:45;12.55;;;6.45;;
23714;SDS011;12036;50.858;4.472;2022-10-31T04:27:10;8.40;;;6.10;;
23714;SDS011;12036;50.858;4.472;2022-10-31T04:29:36;12.95;;;6.80;;
23714;SDS011;12036;50.858;4.472;2022-10-31T04:32:02;14.15;;;6.43;;
23714;SDS011;12036;50.858;4.472;2022-10-31T04:34:27;11.52;;;6.40;;
23714;SDS011;12036;50.858;4.472;2022-10-31T04:36:53;11.80;;;6.43;;
23714;SDS011;12036;50.858;4.472;2022-10-31T04:39:19;13.68;;;6.65;;
23714;SDS011;12036;50.858;4.472;2022-10-31T04:41:44;11.25;;;7.10;;
23714;SDS011;12036;50.858;4.472;2022-10-31T04:44:10;16.00;;;7.25;;
23714;SDS011;12036;50.858;4.472;2022-10-31T04:46:35;11.48;;;6.75;;
23714;SDS011;12036;50.858;4.472;2022-10-31T04:49:01;10.45;;;7.18;;
23714;SDS011;12036;50.858;4.472;2022-10-31T04:51:27;11.10;;;6.95;;
23714;SDS011;12036;50.858;4.472;2022-10-31T04:53:52;10.93;;;7.15;;
23714;SDS011;12036;50.858;4.472;2022-10-31T04:56:18;12.10;;;6.90;;
23714;SDS011;12036;50.858;4.472;2022-10-31T04:58:44;11.27;;;6.80;;
23714;SDS011;12036;50.858;4.472;2022-10-31T05:01:09;12.82;;;7.05;;
23714;SDS011;12036;50.858;4.472;2022-10-31T05:03:35;13.98;;;7.28;;
23714;SDS011;12036;50.858;4.472;2022-10-31T05:06:01;11.45;;;6.78;;
23714;SDS011;12036;50.858;4.472;2022-10-31T05:08:26;11.93;;;6.75;;
23714;SDS011;12036;50.858;4.472;2022-10-31T05:10:52;14.45;;;7.28;;
23714;SDS011;12036;50.858;4.472;2022-10-31T05:13:17;15.32;;;7.15;;
23714;SDS011;12036;50.858;4.472;2022-10-31T05:15:43;12.25;;;7.35;;
23714;SDS011;12036;50.858;4.472;2022-10-31T05:18:09;10.60;;;7.05;;
23714;SDS011;12036;50.858;4.472;2022-10-31T05:20:34;13.40;;;7.28;;
23714;SDS011;12036;50.858;4.472;2022-10-31T05:23:00;9.63;;;6.80;;
23714;SDS011;12036;50.858;4.472;2022-10-31T05:25:26;9.70;;;7.00;;
23714;SDS011;12036;50.858;4.472;2022-10-31T05:27:53;12.48;;;7.20;;
23714;SDS011;12036;50.858;4.472;2022-10-31T05:30:21;10.70;;;6.95;;
23714;SDS011;12036;50.858;4.472;2022-10-31T05:32:49;14.30;;;8.70;;
23714;SDS011;12036;50.858;4.472;2022-10-31T05:35:16;11.30;;;7.78;;
23714;SDS011;12036;50.858;4.472;2022-10-31T05:37:43;10.55;;;7.20;;
23714;SDS011;12036;50.858;4.472;2022-10-31T05:40:10;13.77;;;7.47;;
23714;SDS011;12036;50.858;4.472;2022-10-31T05:42:40;10.80;;;7.13;;
23714;SDS011;12036;50.858;4.472;2022-10-31T05:45:07;12.55;;;7.28;;
23714;SDS011;12036;50.858;4.472;2022-10-31T05:47:34;10.77;;;7.03;;
23714;SDS011;12036;50.858;4.472;2022-10-31T05:50:00;12.23;;;7.68;;
23714;SDS011;12036;50.858;4.472;2022-10-31T05:52:26;11.98;;;7.50;;
23714;SDS011;12036;50.858;4.472;2022-10-31T05:54:52;12.52;;;7.80;;
23714;SDS011;12036;50.858;4.472;2022-10-31T05:57:17;13.02;;;7.38;;
23714;SDS011;12036;50.858;4.472;2022-10-31T05:59:43;13.52;;;8.43;;
23714;SDS011;12036;50.858;4.472;2022-10-31T06:02:08;11.20;;;7.80;;
23714;SDS011;12036;50.858;4.472;2022-10-31T06:04:34;12.20;;;7.63;;
23714;SDS011;12036;50.858;4.472;2022-10-31T06:07:00;15.00;;;8.07;;
23714;SDS011;12036;50.858;4.472;2022-10-31T06:09:25;17.90;;;8.18;;
23714;SDS011;12036;50.858;4.472;2022-10-31T06:11:51;16.08;;;8.02;;
23714;SDS011;12036;50.858;4.472;2022-10-31T06:14:16;14.98;;;8.55;;
23714;SDS011;12036;50.858;4.472;2022-10-31T06:16:42;14.25;;;8.00;;
23714;SDS011;12036;50.858;4.472;2022-10-31T06:19:08;14.70;;;7.93;;
23714;SDS011;12036;50.858;4.472;2022-10-31T06:21:33;12.30;;;8.18;;
23714;SDS011;12036;50.858;4.472;2022-10-31T06:23:59;14.68;;;7.95;;
23714;SDS011;12036;50.858;4.472;2022-10-31T06:26:25;16.23;;;8.32;;
23714;SDS011;12036;50.858;4.472;2022-10-31T06:28:50;20.63;;;9.02;;
23714;SDS011;12036;50.858;4.472;2022-10-31T06:31:16;15.20;;;8.27;;
23714;SDS011;12036;50.858;4.472;2022-10-31T06:33:41;15.57;;;9.73;;
23714;SDS011;12036;50.858;4.472;2022-10-31T06:36:08;15.93;;;8.50;;
23714;SDS011;12036;50.858;4.472;2022-10-31T06:38:34;13.07;;;8.23;;
23714;SDS011;12036;50.858;4.472;2022-10-31T06:41:03;14.10;;;8.90;;
23714;SDS011;12036;50.858;4.472;2022-10-31T06:43:30;17.83;;;9.32;;
23714;SDS011;12036;50.858;4.472;2022-10-31T06:45:56;16.92;;;10.77;;
23714;SDS011;12036;50.858;4.472;2022-10-31T06:48:21;20.90;;;10.45;;
23714;SDS011;12036;50.858;4.472;2022-10-31T06:50:47;19.33;;;11.05;;
23714;SDS011;12036;50.858;4.472;2022-10-31T06:53:13;16.73;;;10.60;;
23714;SDS011;12036;50.858;4.472;2022-10-31T06:55:42;21.45;;;10.30;;
23714;SDS011;12036;50.858;4.472;2022-10-31T06:58:08;15.57;;;9.48;;
23714;SDS011;12036;50.858;4.472;2022-10-31T07:00:35;17.30;;;10.50;;
23714;SDS011;12036;50.858;4.472;2022-10-31T07:03:02;17.88;;;10.32;;
23714;SDS011;12036;50.858;4.472;2022-10-31T07:05:30;17.95;;;9.70;;
23714;SDS011;12036;50.858;4.472;2022-10-31T07:07:57;15.40;;;9.48;;
23714;SDS011;12036;50.858;4.472;2022-10-31T07:10:27;16.73;;;10.30;;
23714;SDS011;12036;50.858;4.472;2022-10-31T07:12:59;18.60;;;9.90;;
23714;SDS011;12036;50.858;4.472;2022-10-31T07:15:26;15.70;;;9.38;;
23714;SDS011;12036;50.858;4.472;2022-10-31T07:17:59;14.23;;;9.60;;
23714;SDS011;12036;50.858;4.472;2022-10-31T07:22:52;20.48;;;10.20;;
23714;SDS011;12036;50.858;4.472;2022-10-31T07:25:17;18.77;;;10.82;;
23714;SDS011;12036;50.858;4.472;2022-10-31T07:27:43;19.00;;;10.32;;
23714;SDS011;12036;50.858;4.472;2022-10-31T07:30:09;20.83;;;12.10;;
23714;SDS011;12036;50.858;4.472;2022-10-31T07:32:43;15.65;;;10.70;;
23714;SDS011;12036;50.858;4.472;2022-10-31T07:35:17;25.83;;;11.95;;
23714;SDS011;12036;50.858;4.472;2022-10-31T07:37:47;20.98;;;12.52;;
23714;SDS011;12036;50.858;4.472;2022-10-31T07:40:13;23.20;;;12.00;;
23714;SDS011;12036;50.858;4.472;2022-10-31T07:42:43;24.80;;;11.65;;
23714;SDS011;12036;50.858;4.472;2022-10-31T07:45:11;17.50;;;12.17;;
23714;SDS011;12036;50.858;4.472;2022-10-31T07:47:39;19.67;;;11.55;;
23714;SDS011;12036;50.858;4.472;2022-10-31T07:50:14;23.92;;;11.65;;
23714;SDS011;12036;50.858;4.472;2022-10-31T07:52:44;21.13;;;11.13;;
23714;SDS011;12036;50.858;4.472;2022-10-31T07:55:10;20.10;;;11.55;;
23714;SDS011;12036;50.858;4.472;2022-10-31T07:57:36;24.38;;;12.30;;
23714;SDS011;12036;50.858;4.472;2022-10-31T08:00:06;21.63;;;11.85;;
23714;SDS011;12036;50.858;4.472;2022-10-31T08:02:33;17.92;;;10.43;;
23714;SDS011;12036;50.858;4.472;2022-10-31T08:04:59;21.40;;;11.52;;
23714;SDS011;12036;50.858;4.472;2022-10-31T08:07:26;19.60;;;11.30;;
23714;SDS011;12036;50.858;4.472;2022-10-31T08:09:52;23.33;;;11.00;;
23714;SDS011;12036;50.858;4.472;2022-10-31T08:12:18;21.08;;;11.68;;
23714;SDS011;12036;50.858;4.472;2022-10-31T08:14:44;19.73;;;11.27;;
23714;SDS011;12036;50.858;4.472;2022-10-31T08:17:10;19.58;;;12.23;;
23714;SDS011;12036;50.858;4.472;2022-10-31T08:19:36;18.17;;;10.90;;
23714;SDS011;12036;50.858;4.472;2022-10-31T08:22:01;19.95;;;11.23;;
23714;SDS011;12036;50.858;4.472;2022-10-31T08:24:27;26.23;;;11.48;;
23714;SDS011;12036;50.858;4.472;2022-10-31T08:26:53;17.95;;;10.68;;
23714;SDS011;12036;50.858;4.472;2022-10-31T08:29:18;19.73;;;10.73;;
23714;SDS011;12036;50.858;4.472;2022-10-31T08:31:44;17.13;;;10.68;;
23714;SDS011;12036;50.858;4.472;2022-10-31T08:34:09;19.20;;;10.00;;
23714;SDS011;12036;50.858;4.472;2022-10-31T08:36:35;19.05;;;10.55;;
23714;SDS011;12036;50.858;4.472;2022-10-31T08:39:01;22.13;;;10.65;;
23714;SDS011;12036;50.858;4.472;2022-10-31T08:41:27;17.25;;;10.15;;
23714;SDS011;12036;50.858;4.472;2022-10-31T08:43:53;18.38;;;10.18;;
23714;SDS011;12036;50.858;4.472;2022-10-31T08:46:18;16.25;;;9.98;;
23714;SDS011;12036;50.858;4.472;2022-10-31T08:48:44;17.83;;;10.80;;
23714;SDS011;12036;50.858;4.472;2022-10-31T08:51:12;17.02;;;10.43;;
23714;SDS011;12036;50.858;4.472;2022-10-31T08:53:37;22.63;;;10.43;;
23714;SDS011;12036;50.858;4.472;2022-10-31T08:56:03;14.73;;;9.38;;
23714;SDS011;12036;50.858;4.472;2022-10-31T08:58:29;17.45;;;10.50;;
23714;SDS011;12036;50.858;4.472;2022-10-31T09:00:55;20.48;;;10.82;;
23714;SDS011;12036;50.858;4.472;2022-10-31T09:03:25;20.80;;;10.07;;
23714;SDS011;12036;50.858;4.472;2022-10-31T09:05:59;20.08;;;10.40;;
23714;SDS011;12036;50.858;4.472;2022-10-31T09:08:26;19.48;;;10.10;;
23714;SDS011;12036;50.858;4.472;2022-10-31T09:10:55;20.33;;;10.80;;
23714;SDS011;12036;50.858;4.472;2022-10-31T09:13:21;19.67;;;10.27;;
23714;SDS011;12036;50.858;4.472;2022-10-31T09:15:48;16.15;;;10.52;;
23714;SDS011;12036;50.858;4.472;2022-10-31T09:18:15;19.10;;;10.60;;
23714;SDS011;12036;50.858;4.472;2022-10-31T09:20:43;17.05;;;10.77;;
23714;SDS011;12036;50.858;4.472;2022-10-31T09:23:11;19.92;;;10.85;;
23714;SDS011;12036;50.858;4.472;2022-10-31T09:25:39;17.38;;;11.98;;
23714;SDS011;12036;50.858;4.472;2022-10-31T09:28:05;19.77;;;11.25;;
23714;SDS011;12036;50.858;4.472;2022-10-31T09:30:32;21.55;;;11.23;;
23714;SDS011;12036;50.858;4.472;2022-10-31T09:33:00;20.67;;;11.27;;
23714;SDS011;12036;50.858;4.472;2022-10-31T09:37:57;20.15;;;10.63;;
23714;SDS011;12036;50.858;4.472;2022-10-31T09:43:05;17.55;;;10.48;;
23714;SDS011;12036;50.858;4.472;2022-10-31T09:45:39;19.42;;;10.60;;
23714;SDS011;12036;50.858;4.472;2022-10-31T09:51:24;16.23;;;9.90;;
23714;SDS011;12036;50.858;4.472;2022-10-31T09:56:27;18.67;;;12.15;;
23714;SDS011;12036;50.858;4.472;2022-10-31T09:58:55;18.45;;;10.70;;
23714;SDS011;12036;50.858;4.472;2022-10-31T10:01:26;17.17;;;10.68;;
23714;SDS011;12036;50.858;4.472;2022-10-31T10:03:55;20.40;;;11.02;;
23714;SDS011;12036;50.858;4.472;2022-10-31T10:06:27;18.42;;;10.50;;
23714;SDS011;12036;50.858;4.472;2022-10-31T10:08:54;21.50;;;10.68;;
23714;SDS011;12036;50.858;4.472;2022-10-31T10:19:32;16.20;;;9.98;;
23714;SDS011;12036;50.858;4.472;2022-10-31T10:30:34;18.85;;;10.65;;
23714;SDS011;12036;50.858;4.472;2022-10-31T10:35:49;18.08;;;9.00;;
23714;SDS011;12036;50.858;4.472;2022-10-31T10:41:22;14.02;;;10.02;;
23714;SDS011;12036;50.858;4.472;2022-10-31T10:43:50;18.00;;;9.40;;
23714;SDS011;12036;50.858;4.472;2022-10-31T10:49:23;18.67;;;9.75;;
23714;SDS011;12036;50.858;4.472;2022-10-31T10:52:01;20.65;;;9.45;;
23714;SDS011;12036;50.858;4.472;2022-10-31T10:57:44;18.02;;;9.77;;
23714;SDS011;12036;50.858;4.472;2022-10-31T11:00:24;23.05;;;9.95;;
23714;SDS011;12036;50.858;4.472;2022-10-31T11:03:14;16.98;;;9.98;;
23714;SDS011;12036;50.858;4.472;2022-10-31T11:05:44;16.00;;;9.68;;
23714;SDS011;12036;50.858;4.472;2022-10-31T11:08:22;17.80;;;9.40;;
23714;SDS011;12036;50.858;4.472;2022-10-31T11:10:59;20.42;;;9.68;;
23714;SDS011;12036;50.858;4.472;2022-10-31T11:13:29;18.73;;;9.60;;
23714;SDS011;12036;50.858;4.472;2022-10-31T11:15:58;14.18;;;8.15;;
23714;SDS011;12036;50.858;4.472;2022-10-31T11:18:30;16.77;;;8.70;;
23714;SDS011;12036;50.858;4.472;2022-10-31T11:20:59;16.13;;;7.90;;
23714;SDS011;12036;50.858;4.472;2022-10-31T11:23:26;17.10;;;7.95;;
23714;SDS011;12036;50.858;4.472;2022-10-31T11:25:57;17.40;;;8.90;;
23714;SDS011;12036;50.858;4.472;2022-10-31T11:28:28;19.60;;;8.65;;
23714;SDS011;12036;50.858;4.472;2022-10-31T11:30:58;18.70;;;8.23;;
23714;SDS011;12036;50.858;4.472;2022-10-31T11:33:32;16.67;;;8.00;;
23714;SDS011;12036;50.858;4.472;2022-10-31T11:36:03;17.00;;;7.68;;
23714;SDS011;12036;50.858;4.472;2022-10-31T11:38:46;12.43;;;7.05;;
23714;SDS011;12036;50.858;4.472;2022-10-31T11:41:20;14.80;;;7.88;;
23714;SDS011;12036;50.858;4.472;2022-10-31T11:44:16;14.93;;;7.97;;
23714;SDS011;12036;50.858;4.472;2022-10-31T11:46:45;15.90;;;7.00;;
23714;SDS011;12036;50.858;4.472;2022-10-31T11:49:20;12.90;;;7.18;;
23714;SDS011;12036;50.858;4.472;2022-10-31T11:52:08;14.05;;;7.30;;
23714;SDS011;12036;50.858;4.472;2022-10-31T12:00:48;16.90;;;8.00;;
23714;SDS011;12036;50.858;4.472;2022-10-31T12:05:49;12.70;;;6.63;;
23714;SDS011;12036;50.858;4.472;2022-10-31T12:08:30;11.90;;;7.18;;
23714;SDS011;12036;50.858;4.472;2022-10-31T12:16:47;15.82;;;7.10;;
23714;SDS011;12036;50.858;4.472;2022-10-31T12:19:30;15.57;;;6.90;;
23714;SDS011;12036;50.858;4.472;2022-10-31T12:22:05;14.98;;;6.55;;
23714;SDS011;12036;50.858;4.472;2022-10-31T12:33:02;19.23;;;7.00;;
23714;SDS011;12036;50.858;4.472;2022-10-31T12:49:25;24.25;;;6.38;;
23714;SDS011;12036;50.858;4.472;2022-10-31T13:00:11;13.87;;;5.70;;
23714;SDS011;12036;50.858;4.472;2022-10-31T13:03:17;16.25;;;6.18;;
23714;SDS011;12036;50.858;4.472;2022-10-31T13:05:45;13.02;;;5.68;;
23714;SDS011;12036;50.858;4.472;2022-10-31T13:08:22;13.77;;;6.15;;
23714;SDS011;12036;50.858;4.472;2022-10-31T13:10:55;10.50;;;5.50;;
23714;SDS011;12036;50.858;4.472;2022-10-31T13:13:35;18.20;;;6.73;;
23714;SDS011;12036;50.858;4.472;2022-10-31T13:16:30;15.98;;;5.57;;
23714;SDS011;12036;50.858;4.472;2022-10-31T13:22:00;11.18;;;5.43;;
23714;SDS011;12036;50.858;4.472;2022-10-31T13:24:57;13.68;;;5.68;;
23714;SDS011;12036;50.858;4.472;2022-10-31T13:27:37;8.75;;;4.95;;
23714;SDS011;12036;50.858;4.472;2022-10-31T13:30:13;12.57;;;5.68;;
23714;SDS011;12036;50.858;4.472;2022-10-31T13:35:42;10.35;;;5.43;;
23714;SDS011;12036;50.858;4.472;2022-10-31T13:38:41;19.83;;;5.50;;
23714;SDS011;12036;50.858;4.472;2022-10-31T13:48:58;16.30;;;5.70;;
23714;SDS011;12036;50.858;4.472;2022-10-31T13:51:25;11.27;;;5.30;;
23714;SDS011;12036;50.858;4.472;2022-10-31T14:01:25;9.45;;;4.45;;
23714;SDS011;12036;50.858;4.472;2022-10-31T14:06:35;12.80;;;4.15;;
23714;SDS011;12036;50.858;4.472;2022-10-31T14:09:03;19.50;;;4.25;;
23714;SDS011;12036;50.858;4.472;2022-10-31T14:11:29;10.00;;;4.10;;
23714;SDS011;12036;50.858;4.472;2022-10-31T14:13:55;9.80;;;4.25;;
23714;SDS011;12036;50.858;4.472;2022-10-31T14:16:26;9.43;;;4.18;;
23714;SDS011;12036;50.858;4.472;2022-10-31T14:23:54;14.65;;;4.25;;
23714;SDS011;12036;50.858;4.472;2022-10-31T14:36:46;9.60;;;4.20;;
23714;SDS011;12036;50.858;4.472;2022-10-31T14:39:24;13.82;;;4.78;;
23714;SDS011;12036;50.858;4.472;2022-10-31T14:42:19;10.35;;;4.28;;
23714;SDS011;12036;50.858;4.472;2022-10-31T14:45:17;13.43;;;5.38;;
23714;SDS011;12036;50.858;4.472;2022-10-31T14:50:47;13.65;;;4.35;;
23714;SDS011;12036;50.858;4.472;2022-10-31T14:53:22;12.25;;;4.80;;
23714;SDS011;12036;50.858;4.472;2022-10-31T14:55:50;9.43;;;4.80;;
23714;SDS011;12036;50.858;4.472;2022-10-31T15:01:29;17.67;;;5.75;;
23714;SDS011;12036;50.858;4.472;2022-10-31T15:04:02;17.90;;;6.18;;
23714;SDS011;12036;50.858;4.472;2022-10-31T15:06:40;11.52;;;5.18;;
23714;SDS011;12036;50.858;4.472;2022-10-31T15:09:24;15.85;;;5.40;;
23714;SDS011;12036;50.858;4.472;2022-10-31T15:11:54;10.90;;;4.95;;
23714;SDS011;12036;50.858;4.472;2022-10-31T15:14:22;13.30;;;5.53;;
23714;SDS011;12036;50.858;4.472;2022-10-31T15:16:49;11.68;;;5.78;;
23714;SDS011;12036;50.858;4.472;2022-10-31T15:19:17;14.80;;;5.60;;
23714;SDS011;12036;50.858;4.472;2022-10-31T15:24:13;13.20;;;5.45;;
23714;SDS011;12036;50.858;4.472;2022-10-31T15:26:43;17.45;;;7.43;;
23714;SDS011;12036;50.858;4.472;2022-10-31T15:29:12;12.98;;;6.93;;
23714;SDS011;12036;50.858;4.472;2022-10-31T15:32:17;13.55;;;6.07;;
23714;SDS011;12036;50.858;4.472;2022-10-31T15:34:48;17.17;;;6.72;;
23714;SDS011;12036;50.858;4.472;2022-10-31T15:37:16;20.20;;;7.10;;
23714;SDS011;12036;50.858;4.472;2022-10-31T15:39:47;13.32;;;6.50;;
23714;SDS011;12036;50.858;4.472;2022-10-31T15:42:24;14.40;;;6.35;;
23714;SDS011;12036;50.858;4.472;2022-10-31T15:45:00;15.48;;;7.43;;
23714;SDS011;12036;50.858;4.472;2022-10-31T15:47:35;18.70;;;7.05;;
23714;SDS011;12036;50.858;4.472;2022-10-31T15:50:03;19.45;;;8.63;;
23714;SDS011;12036;50.858;4.472;2022-10-31T15:52:44;14.95;;;6.68;;
23714;SDS011;12036;50.858;4.472;2022-10-31T15:57:49;22.20;;;8.27;;
23714;SDS011;12036;50.858;4.472;2022-10-31T16:05:48;21.70;;;7.30;;
23714;SDS011;12036;50.858;4.472;2022-10-31T16:08:22;16.10;;;7.28;;
23714;SDS011;12036;50.858;4.472;2022-10-31T16:10:55;20.55;;;7.35;;
23714;SDS011;12036;50.858;4.472;2022-10-31T16:16:23;15.15;;;7.03;;
23714;SDS011;12036;50.858;4.472;2022-10-31T16:18:49;18.60;;;8.18;;
23714;SDS011;12036;50.858;4.472;2022-10-31T16:21:22;15.32;;;8.00;;
23714;SDS011;12036;50.858;4.472;2022-10-31T16:23:54;20.65;;;8.75;;
23714;SDS011;12036;50.858;4.472;2022-10-31T16:28:57;17.23;;;8.95;;
23714;SDS011;12036;50.858;4.472;2022-10-31T16:31:27;15.32;;;8.73;;
23714;SDS011;12036;50.858;4.472;2022-10-31T16:34:04;14.80;;;8.75;;
23714;SDS011;12036;50.858;4.472;2022-10-31T16:36:40;16.83;;;8.80;;
23714;SDS011;12036;50.858;4.472;2022-10-31T16:39:06;17.88;;;8.50;;
23714;SDS011;12036;50.858;4.472;2022-10-31T16:41:34;15.82;;;7.88;;
23714;SDS011;12036;50.858;4.472;2022-10-31T16:44:06;18.10;;;8.77;;
23714;SDS011;12036;50.858;4.472;2022-10-31T16:46:42;20.92;;;7.95;;
23714;SDS011;12036;50.858;4.472;2022-10-31T16:49:09;18.25;;;8.15;;
23714;SDS011;12036;50.858;4.472;2022-10-31T16:51:35;19.45;;;8.77;;
23714;SDS011;12036;50.858;4.472;2022-10-31T16:54:00;18.25;;;9.27;;
23714;SDS011;12036;50.858;4.472;2022-10-31T16:56:27;15.82;;;8.65;;
23714;SDS011;12036;50.858;4.472;2022-10-31T16:58:55;17.45;;;8.65;;
23714;SDS011;12036;50.858;4.472;2022-10-31T17:01:21;18.75;;;8.70;;
23714;SDS011;12036;50.858;4.472;2022-10-31T17:03:47;16.60;;;8.35;;
23714;SDS011;12036;50.858;4.472;2022-10-31T17:06:13;16.02;;;9.05;;
23714;SDS011;12036;50.858;4.472;2022-10-31T17:08:39;19.77;;;9.07;;
23714;SDS011;12036;50.858;4.472;2022-10-31T17:11:05;14.85;;;8.40;;
23714;SDS011;12036;50.858;4.472;2022-10-31T17:13:33;18.33;;;8.52;;
23714;SDS011;12036;50.858;4.472;2022-10-31T17:15:59;19.17;;;8.57;;
23714;SDS011;12036;50.858;4.472;2022-10-31T17:18:27;14.32;;;8.63;;
23714;SDS011;12036;50.858;4.472;2022-10-31T17:20:56;17.88;;;8.90;;
23714;SDS011;12036;50.858;4.472;2022-10-31T17:23:23;14.30;;;8.57;;
23714;SDS011;12036;50.858;4.472;2022-10-31T17:25:49;14.50;;;7.88;;
23714;SDS011;12036;50.858;4.472;2022-10-31T17:28:15;12.95;;;7.72;;
23714;SDS011;12036;50.858;4.472;2022-10-31T17:30:41;17.88;;;7.43;;
23714;SDS011;12036;50.858;4.472;2022-10-31T17:33:09;11.93;;;7.20;;
23714;SDS011;12036;50.858;4.472;2022-10-31T17:35:37;18.50;;;7.53;;
23714;SDS011;12036;50.858;4.472;2022-10-31T17:38:02;12.70;;;7.43;;
23714;SDS011;12036;50.858;4.472;2022-10-31T17:40:28;16.08;;;7.28;;
23714;SDS011;12036;50.858;4.472;2022-10-31T17:42:55;13.63;;;7.10;;
23714;SDS011;12036;50.858;4.472;2022-10-31T17:45:21;15.38;;;7.03;;
23714;SDS011;12036;50.858;4.472;2022-10-31T17:47:48;10.80;;;5.70;;
23714;SDS011;12036;50.858;4.472;2022-10-31T17:50:16;16.08;;;6.13;;